Time;durP1;ratioP1;P1;durP2;ratioP2;P2;SDS_P1;SDS_P2;PMS_P1;PMS_P2;Temp;Humidity;BMP_temperature;BMP_pressure;BME280_temperature;BME280_humidity;BME280_pressure;Samples;Min_cycle;Max_cycle;Signal;HPM_P1;HPM_P2
2022/06/23 00:00:28;;;;;;;50.45;27.67;;;;;;;16.17;100.00;92441.91;4786419;29;20067;-77
2022/06/23 00:02:57;;;;;;;51.30;26.73;;;;;;;16.07;100.00;92440.41;4786428;30;20046;-77
2022/06/23 00:05:25;;;;;;;49.67;26.60;;;;;;;16.08;100.00;92435.91;4786574;30;20041;-76
2022/06/23 00:07:55;;;;;;;56.75;27.20;;;;;;;16.06;100.00;92430.19;4787221;29;20046;-77
2022/06/23 00:10:28;;;;;;;53.17;26.95;;;;;;;15.98;100.00;92429.91;4786293;30;20088;-77
2022/06/23 00:12:54;;;;;;;53.67;26.48;;;;;;;15.98;100.00;92429.13;4786350;30;20100;-77
2022/06/23 00:15:27;;;;;;;50.03;25.27;;;;;;;15.96;100.00;92420.75;4786333;30;20432;-77
2022/06/23 00:17:58;;;;;;;52.60;26.23;;;;;;;15.93;100.00;92427.44;4791805;29;20100;-77
2022/06/23 00:20:48;;;;;;;65.32;29.25;;;;;;;15.92;100.00;92430.41;4804287;29;20035;-76
2022/06/23 00:23:21;;;;;;;52.20;27.90;;;;;;;15.91;100.00;92420.94;4804350;29;20038;-77
2022/06/23 00:25:58;;;;;;;58.45;26.95;;;;;;;15.90;100.00;92422.06;4804003;29;20031;-77
2022/06/23 00:28:50;;;;;;;52.60;26.73;;;;;;;15.90;100.00;92422.06;4786534;29;20129;-77
2022/06/23 00:31:39;;;;;;;47.95;25.40;;;;;;;15.90;100.00;92417.53;4787975;29;20038;-77
2022/06/23 00:34:27;;;;;;;48.97;24.92;;;;;;;15.90;100.00;92414.91;4803753;29;20046;-77
2022/06/23 00:37:01;;;;;;;43.15;23.95;;;;;;;15.90;100.00;92411.50;4803956;29;20046;-77
2022/06/23 00:40:10;;;;;;;45.08;23.25;;;;;;;15.88;100.00;92418.97;4802314;29;20073;-77
2022/06/23 00:42:49;;;;;;;41.42;22.58;;;;;;;15.84;100.00;92415.41;4785666;29;20057;-77
2022/06/23 00:45:26;;;;;;;44.10;21.67;;;;;;;15.81;100.00;92419.47;4803814;29;20034;-77
2022/06/23 00:48:14;;;;;;;36.55;18.38;;;;;;;15.79;100.00;92421.66;4787926;29;20390;-77
2022/06/23 00:50:57;;;;;;;43.22;18.13;;;;;;;15.77;100.00;92423.81;4772276;30;20051;-76
2022/06/23 00:53:30;;;;;;;33.28;15.77;;;;;;;15.74;100.00;92425.25;4785799;30;20147;-76
2022/06/23 00:56:04;;;;;;;34.28;16.38;;;;;;;15.70;100.00;92431.44;4785466;30;20094;-77
2022/06/23 00:58:30;;;;;;;27.33;13.90;;;;;;;15.66;100.00;92430.53;4785700;30;20134;-77
2022/06/23 01:01:07;;;;;;;24.52;12.43;;;;;;;15.61;100.00;92423.56;4770593;30;20134;-77
2022/06/23 01:03:43;;;;;;;26.30;14.02;;;;;;;15.58;100.00;92427.63;4785975;30;20134;-77
2022/06/23 01:06:27;;;;;;;37.30;15.25;;;;;;;15.58;100.00;92432.09;4785128;30;20047;-77
2022/06/23 01:09:00;;;;;;;40.30;17.15;;;;;;;15.54;100.00;92431.97;4785470;30;20035;-77
2022/06/23 01:11:43;;;;;;;41.60;20.55;;;;;;;15.50;100.00;92431.06;4795994;29;20039;-77
2022/06/23 01:14:39;;;;;;;40.28;19.63;;;;;;;15.50;100.00;92431.06;4784014;30;20063;-77
2022/06/23 01:17:25;;;;;;;49.13;23.45;;;;;;;15.51;100.00;92434.47;4784693;30;20429;-77
2022/06/23 01:19:56;;;;;;;50.60;23.50;;;;;;;15.50;100.00;92431.06;4769953;30;20043;-77
2022/06/23 01:22:40;;;;;;;51.30;23.48;;;;;;;15.51;100.00;92442.38;4792730;29;20035;-77
2022/06/23 01:25:52;;;;;;;46.03;23.02;;;;;;;15.47;100.00;92447.53;4803098;29;20076;-77
2022/06/23 01:28:21;;;;;;;51.20;24.48;;;;;;;15.44;100.00;92440.25;4802149;29;20042;-77
2022/06/23 01:31:12;;;;;;;40.20;23.98;;;;;;;15.42;100.00;92439.78;4803659;29;20395;-77
2022/06/23 01:33:38;;;;;;;48.63;24.23;;;;;;;15.43;100.00;92436.06;4801748;29;20073;-76
2022/06/23 01:36:11;;;;;;;43.92;24.50;;;;;;;15.44;100.00;92436.84;4803162;29;20047;-77
2022/06/23 01:39:18;;;;;;;50.92;25.38;;;;;;;15.42;100.00;92429.22;4803171;29;20047;-76
2022/06/23 01:41:58;;;;;;;46.85;25.02;;;;;;;15.42;100.00;92434.50;4802030;29;20088;-76
2022/06/23 01:44:51;;;;;;;55.38;26.77;;;;;;;15.40;100.00;92432.19;4801784;29;20169;-76
2022/06/23 01:47:56;;;;;;;49.38;25.90;;;;;;;15.40;100.00;92426.13;4803043;29;20050;-76
2022/06/23 01:50:30;;;;;;;50.50;28.50;;;;;;;15.38;100.00;92434.38;4771435;29;20502;-77
2022/06/23 01:53:12;;;;;;;63.20;29.60;;;;;;;15.37;100.00;92426.78;4786998;29;20069;-77
2022/06/23 01:56:03;;;;;;;54.67;29.25;;;;;;;15.35;100.00;92427.09;4802956;29;20039;-77
2022/06/23 01:58:53;;;;;;;56.67;29.17;;;;;;;15.38;100.00;92425.69;4803151;29;20050;-76
2022/06/23 02:01:28;;;;;;;66.28;31.40;;;;;;;15.41;100.00;92427.69;4802686;29;20058;-77
2022/06/23 02:04:07;;;;;;;61.35;30.67;;;;;;;15.39;100.00;92429.88;4786140;29;20463;-77
2022/06/23 02:06:44;;;;;;;58.75;28.63;;;;;;;15.39;100.00;92427.22;4801907;29;20062;-77
2022/06/23 02:09:50;;;;;;;59.00;27.52;;;;;;;15.37;100.00;92426.78;4802039;29;20152;-77
2022/06/23 02:12:30;;;;;;;61.78;28.70;;;;;;;15.35;100.00;92418.41;4729690;30;20055;-77
2022/06/23 02:15:03;;;;;;;58.17;29.33;;;;;;;15.34;100.00;92417.63;4714580;30;20055;-76
2022/06/23 02:17:45;;;;;;;49.53;27.48;;;;;;;15.36;100.00;92417.31;4778572;29;20050;-77
2022/06/23 02:20:20;;;;;;;50.78;26.13;;;;;;;15.36;100.00;92414.69;4806171;29;20069;-76
2022/06/23 02:22:47;;;;;;;53.20;23.88;;;;;;;15.35;100.00;92418.41;4806318;29;20444;-77
2022/06/23 02:25:19;;;;;;;52.97;27.13;;;;;;;15.33;100.00;92420.59;4785621;30;20406;-76
2022/06/23 02:28:31;;;;;;;60.42;28.98;;;;;;;15.34;100.00;92414.22;4772369;30;20036;-76
2022/06/23 02:31:42;;;;;;;55.30;26.30;;;;;;;15.34;100.00;92416.88;4788195;30;20441;-77
2022/06/23 02:34:27;;;;;;;50.30;27.80;;;;;;;15.34;100.00;92422.91;4784241;30;20057;-77
2022/06/23 02:36:52;;;;;;;54.78;29.55;;;;;;;15.37;100.00;92416.22;4800595;29;20050;-76
2022/06/23 02:39:28;;;;;;;53.90;27.52;;;;;;;15.34;100.00;92412.34;4806442;29;20031;-77
2022/06/23 02:41:59;;;;;;;50.50;27.98;;;;;;;15.33;100.00;92410.81;4789773;29;20295;-77
2022/06/23 02:44:48;;;;;;;58.30;27.40;;;;;;;15.34;100.00;92411.59;4804494;29;20042;-76
2022/06/23 02:47:24;;;;;;;50.78;27.40;;;;;;;15.34;100.00;92412.34;4803167;29;20067;-77
2022/06/23 02:50:03;;;;;;;57.17;27.73;;;;;;;15.32;100.00;92405.84;4789707;29;20046;-76
2022/06/23 02:53:07;;;;;;;45.65;23.88;;;;;;;15.30;100.00;92411.44;4805016;29;20786;-76
2022/06/23 02:56:01;;;;;;;42.88;21.13;;;;;;;15.28;100.00;92408.34;4768062;29;20405;-77
2022/06/23 02:58:42;;;;;;;32.67;15.45;;;;;;;15.26;100.00;92407.13;4777892;30;20411;-76
2022/06/23 03:01:35;;;;;;;31.00;13.65;;;;;;;15.26;100.00;92415.03;4781415;30;20128;-76
2022/06/23 03:04:18;;;;;;;24.88;12.23;;;;;;;15.20;100.00;92407.31;4787513;29;20050;-77
2022/06/23 03:06:48;;;;;;;21.38;12.07;;;;;;;15.16;100.00;92414.28;4789105;29;20070;-77
2022/06/23 03:09:28;;;;;;;25.63;12.50;;;;;;;15.15;100.00;92409.31;4804180;29;20091;-77
2022/06/23 03:11:54;;;;;;;26.38;13.50;;;;;;;15.10;100.00;92412.91;4805536;29;20039;-76
2022/06/23 03:14:36;;;;;;;32.35;12.77;;;;;;;15.09;100.00;92419.28;4819201;29;20038;-76
2022/06/23 03:17:19;;;;;;;24.80;12.57;;;;;;;15.06;100.00;92417.25;4804979;29;20058;-76
2022/06/23 03:20:07;;;;;;;30.60;12.68;;;;;;;15.01;100.00;92420.06;4787350;29;20039;-77
2022/06/23 03:23:13;;;;;;;36.50;12.30;;;;;;;14.99;100.00;92416.97;4787428;29;20082;-77
2022/06/23 03:26:05;;;;;;;31.05;12.80;;;;;;;14.96;100.00;92414.97;4779618;29;20461;-77
2022/06/23 03:28:46;;;;;;;24.45;11.90;;;;;;;14.95;100.00;92418.69;4789823;29;20483;-77
2022/06/23 03:31:22;;;;;;;25.20;11.35;;;;;;;14.91;100.00;92415.91;4800811;29;20043;-77
2022/06/23 03:33:56;;;;;;;30.77;11.45;;;;;;;14.90;100.00;92426.75;4785961;30;20454;-77
2022/06/23 03:36:46;;;;;;;25.20;11.07;;;;;;;14.83;100.00;92418.56;4786915;29;20095;-77
2022/06/23 03:42:43;;;;;;;22.90;9.85;;;;;;;14.80;100.00;92413.94;4787065;29;20046;-77
2022/06/23 03:45:21;;;;;;;22.75;10.25;;;;;;;14.80;100.00;92413.94;4784170;29;20571;-77
2022/06/23 03:47:56;;;;;;;23.23;11.05;;;;;;;14.80;100.00;92412.06;4786990;30;20038;-76
2022/06/23 03:50:43;;;;;;;25.13;10.57;;;;;;;14.80;100.00;92408.66;4787750;29;20043;-77
2022/06/23 03:53:23;;;;;;;30.38;11.43;;;;;;;14.79;100.00;92407.88;4786643;29;20062;-77
2022/06/23 03:55:53;;;;;;;27.63;11.68;;;;;;;14.82;100.00;92414.41;4786771;30;20067;-77
2022/06/23 03:58:27;;;;;;;32.65;12.32;;;;;;;14.83;100.00;92413.31;4786618;29;20035;-77
2022/06/23 04:01:00;;;;;;;22.05;12.45;;;;;;;14.85;100.00;92416.41;4804707;29;20077;-77
2022/06/23 04:03:51;;;;;;;26.88;13.15;;;;;;;14.87;100.00;92408.94;4804693;29;20039;-77
2022/06/23 04:06:39;;;;;;;30.75;14.75;;;;;;;14.89;100.00;92412.06;4788353;29;20441;-76
2022/06/23 04:09:15;;;;;;;42.08;13.85;;;;;;;14.93;100.00;92418.25;4805478;29;20569;-76
2022/06/23 04:11:44;;;;;;;32.83;15.65;;;;;;;14.96;100.00;92417.59;4804543;29;20051;-77
2022/06/23 04:14:27;;;;;;;30.08;16.08;;;;;;;14.99;100.00;92423.03;4804254;29;20038;-76
2022/06/23 04:16:57;;;;;;;;;;;;;;;15.05;100.00;92430.78;4788653;29;20137;-77
2022/06/23 04:19:29;;;;;;;33.40;15.85;;;;;;;15.09;100.00;92434.31;4804711;29;20008;-77
2022/06/23 04:22:25;;;;;;;32.95;16.08;;;;;;;15.15;100.00;92435.69;4804310;29;20117;-76
2022/06/23 04:24:55;;;;;;;39.42;15.55;;;;;;;15.19;100.00;92426.06;4801357;29;20141;-76
2022/06/23 04:27:40;;;;;;;38.53;15.98;;;;;;;15.23;100.00;92424.34;4804158;29;20049;-76
2022/06/23 04:30:06;;;;;;;26.95;15.20;;;;;;;15.28;100.00;92424.16;4774584;29;20046;-77
2022/06/23 04:32:35;;;;;;;28.83;15.65;;;;;;;15.31;100.00;92423.56;4806065;29;20072;-76
2022/06/23 04:35:04;;;;;;;34.05;15.02;;;;;;;15.36;100.00;92430.50;4805809;29;20070;-77
2022/06/23 04:37:36;;;;;;;30.83;15.60;;;;;;;15.43;100.00;92440.56;4822475;29;20034;-76
2022/06/23 04:40:26;;;;;;;31.17;14.90;;;;;;;15.52;100.00;92443.94;4820437;29;20042;-77
2022/06/23 04:43:00;;;;;;;32.15;15.05;;;;;;;15.58;100.00;92438.19;4821397;29;20038;-77
2022/06/23 04:45:42;;;;;;;30.25;14.63;;;;;;;15.65;100.00;92442.97;4821916;29;20034;-77
2022/06/23 04:48:40;;;;;;;30.23;15.77;;;;;;;15.70;100.00;92437.50;4822240;29;20038;-77
2022/06/23 04:51:18;;;;;;;37.17;16.10;;;;;;;15.79;100.00;92437.47;4821135;29;20187;-77
2022/06/23 04:53:52;;;;;;;39.15;17.05;;;;;;;15.86;100.00;92443.03;4803691;29;20498;-77
2022/06/23 04:56:20;;;;;;;33.08;15.82;;;;;;;15.93;100.00;92451.22;4787547;29;20042;-77
2022/06/23 04:59:02;;;;;;;32.47;15.18;;;;;;;15.99;100.00;92442.03;4802773;29;20039;-77
2022/06/23 05:01:37;;;;;;;29.92;15.48;;;;;;;16.05;100.00;92450.50;4788345;29;20047;-76
2022/06/23 05:04:05;;;;;;;29.15;15.35;;;;;;;16.12;100.00;92458.72;4784460;30;20043;-77
2022/06/23 05:06:47;;;;;;;34.47;15.98;;;;;;;16.20;100.00;92451.81;4785479;30;20039;-77
2022/06/23 05:09:22;;;;;;;30.60;14.45;;;;;;;16.28;100.00;92458.13;4769808;30;20499;-77
2022/06/23 05:11:52;;;;;;;34.33;14.55;;;;;;;16.36;100.00;92460.72;4785677;30;20044;-77
2022/06/23 05:14:27;;;;;;;28.38;13.57;;;;;;;16.44;100.00;92461.75;4770265;30;20043;-77
2022/06/23 05:17:01;;;;;;;24.23;13.20;;;;;;;16.54;100.00;92461.34;4785551;30;20194;-77
2022/06/23 05:19:31;;;;;;;30.38;13.68;;;;;;;16.60;100.00;92451.38;4784160;30;20053;-77
2022/06/23 05:22:01;;;;;;;33.63;14.50;;;;;;;16.68;100.00;92455.78;4769705;30;20349;-77
2022/06/23 05:24:34;;;;;;;38.00;14.40;;;;;;;16.76;100.00;92462.88;4770384;30;20461;-77
2022/06/23 05:27:06;;;;;;;39.88;14.15;;;;;;;16.84;100.00;92470.00;4769392;30;20043;-77
2022/06/23 05:29:31;;;;;;;25.90;13.23;;;;;;;16.94;100.00;92474.09;4784065;30;20494;-77
2022/06/23 05:32:01;;;;;;;23.20;13.25;;;;;;;17.06;100.00;92476.78;4785702;30;20035;-76
2022/06/23 05:34:31;;;;;;;35.70;13.50;;;;;;;17.21;100.00;92482.56;4770460;30;20293;-77
2022/06/23 05:37:08;;;;;;;27.80;14.63;;;;;;;17.32;100.00;92486.34;4785659;30;20108;-77
2022/06/23 05:39:50;;;;;;;24.48;13.20;;;;;;;17.45;100.00;92487.13;4785352;30;20043;-77
2022/06/23 05:42:21;;;;;;;23.73;12.68;;;;;;;17.60;100.00;92488.38;4785474;30;20035;-78
2022/06/23 05:44:51;;;;;;;32.20;13.23;;;;;;;17.79;100.00;92490.50;4755580;30;20039;-77
2022/06/23 05:47:19;;;;;;;25.55;12.15;;;;;;;18.34;98.74;92499.75;4785527;30;20035;-78
2022/06/23 05:49:56;;;;;;;21.42;11.20;;;;;;;19.00;95.52;92498.63;4789812;29;20045;-77
2022/06/23 05:52:28;;;;;;;25.58;11.05;;;;;;;19.66;90.63;92504.50;4798763;29;20035;-78
2022/06/23 05:55:05;;;;;;;23.92;10.98;;;;;;;20.32;85.92;92508.34;4782116;29;20050;-78
2022/06/23 05:58:10;;;;;;;21.38;11.13;;;;;;;20.94;82.13;92503.19;4792421;29;20067;-77
2022/06/23 06:00:43;;;;;;;31.15;10.88;;;;;;;21.55;78.34;92505.16;4760369;29;20047;-78
2022/06/23 06:03:25;;;;;;;23.55;10.52;;;;;;;22.03;74.48;92510.88;4795354;29;20520;-78
2022/06/23 06:05:52;;;;;;;;;;;;;;;22.35;73.63;92512.53;4798713;29;20047;-78
2022/06/23 06:08:26;;;;;;;23.98;10.80;;;;;;;22.19;75.70;92505.41;4802268;29;19975;-79
2022/06/23 06:10:53;;;;;;;27.25;10.07;;;;;;;22.21;74.65;92511.19;4788802;29;20050;-78
2022/06/23 06:13:26;;;;;;;19.65;6.68;;;;;;;22.45;69.80;92506.59;4770057;29;20531;-78
2022/06/23 06:15:59;;;;;;;13.05;6.15;;;;;;;22.43;70.31;92506.97;4801067;29;20065;-79
2022/06/23 06:18:33;;;;;;;10.30;4.57;;;;;;;22.63;65.09;92504.94;4796725;29;20038;-79
2022/06/23 06:21:01;;;;;;;12.35;4.82;;;;;;;22.81;64.44;92504.41;4790366;29;20503;-78
2022/06/23 06:23:53;;;;;;;10.10;3.53;;;;;;;22.48;61.06;92500.53;4787823;30;20518;-79
2022/06/23 06:26:23;;;;;;;13.23;3.80;;;;;;;22.86;60.65;92498.75;4781644;29;20054;-79
2022/06/23 06:28:53;;;;;;;16.65;4.47;;;;;;;23.43;60.19;92498.66;4806518;29;20038;-79
2022/06/23 06:31:40;;;;;;;10.52;4.63;;;;;;;23.54;63.65;92488.09;4790516;29;20043;-78
2022/06/23 06:34:58;;;;;;;14.05;5.10;;;;;;;23.64;64.09;92484.75;4786981;30;20035;-78
2022/06/23 06:37:28;;;;;;;19.55;7.25;;;;;;;23.46;68.30;92485.38;4774466;30;20478;-78
2022/06/23 06:39:58;;;;;;;23.10;9.23;;;;;;;23.02;71.57;92483.34;4788292;30;20039;-78
2022/06/23 06:42:32;;;;;;;25.33;8.93;;;;;;;22.60;73.05;92489.66;4798282;29;20566;-78
2022/06/23 06:45:07;;;;;;;20.05;8.55;;;;;;;22.11;76.23;92487.00;4789903;29;20143;-77
2022/06/23 06:47:35;;;;;;;20.35;8.50;;;;;;;21.96;78.09;92494.03;4796718;29;20485;-78
2022/06/23 06:50:16;;;;;;;24.83;9.27;;;;;;;21.91;78.33;92496.97;4786987;29;20031;-77
2022/06/23 06:52:41;;;;;;;19.15;7.88;;;;;;;21.98;76.36;92497.88;4792749;29;20039;-77
2022/06/23 06:55:16;;;;;;;18.83;7.93;;;;;;;21.94;77.54;92509.59;4784843;29;20279;-78
2022/06/23 06:57:56;;;;;;;23.17;8.23;;;;;;;21.79;78.92;92504.03;4803374;29;20042;-77
2022/06/23 07:00:36;;;;;;;21.60;9.13;;;;;;;21.58;78.10;92503.66;4795872;29;20054;-78
2022/06/23 07:03:06;;;;;;;25.15;8.50;;;;;;;21.53;80.19;92506.63;4800861;29;20034;-78
2022/06/23 07:05:56;;;;;;;21.90;10.52;;;;;;;21.38;81.61;92513.56;4794270;29;20051;-77
2022/06/23 07:08:32;;;;;;;26.98;9.65;;;;;;;21.33;82.72;92513.84;4789510;29;20027;-77
2022/06/23 07:11:14;;;;;;;26.35;10.10;;;;;;;21.65;82.74;92511.03;4775429;29;20043;-78
2022/06/23 07:13:40;;;;;;;;;;;;;;;21.87;80.57;92504.16;4799447;29;20410;-78
2022/06/23 07:16:26;;;;;;;16.48;8.68;;;;;;;22.31;78.44;92517.03;4791567;29;19917;-79
2022/06/23 07:19:03;;;;;;;20.40;7.97;;;;;;;22.63;75.62;92518.28;4774921;29;20043;-79
2022/06/23 07:21:44;;;;;;;14.10;6.65;;;;;;;23.23;70.80;92520.19;4794742;29;20039;-79
2022/06/23 07:24:21;;;;;;;21.38;8.85;;;;;;;23.06;72.62;92526.88;4783693;29;20051;-79
2022/06/23 07:26:59;;;;;;;17.55;9.43;;;;;;;22.34;78.56;92527.00;4789816;29;20376;-79
2022/06/23 07:29:44;;;;;;;24.73;9.90;;;;;;;21.91;77.82;92521.75;4793849;29;20111;-78
2022/06/23 07:32:45;;;;;;;18.52;8.65;;;;;;;22.01;79.63;92526.47;4795556;29;20118;-80
2022/06/23 07:35:17;;;;;;;15.60;9.90;;;;;;;21.90;79.71;92530.84;4809384;29;20038;-79
2022/06/23 07:37:51;;;;;;;19.55;10.15;;;;;;;21.78;78.96;92528.38;4778357;29;20140;-82
2022/06/23 07:40:20;;;;;;;18.20;9.00;;;;;;;21.84;79.06;92534.94;4795148;29;20132;-79
2022/06/23 07:42:53;;;;;;;24.05;9.45;;;;;;;21.92;79.12;92547.25;4800362;29;20049;-78
2022/06/23 07:45:36;;;;;;;16.42;8.40;;;;;;;21.92;79.18;92549.16;4792245;29;20039;-79
2022/06/23 07:48:02;;;;;;;13.10;7.50;;;;;;;21.88;78.64;92554.41;4801014;29;20042;-80
2022/06/23 07:50:29;;;;;;;18.55;8.45;;;;;;;21.64;81.05;92555.53;4790707;29;20039;-79
2022/06/23 07:52:55;;;;;;;19.08;8.70;;;;;;;21.77;79.39;92551.59;4798112;29;20076;-79
2022/06/23 07:55:26;;;;;;;23.40;7.90;;;;;;;21.78;78.10;92555.78;4797151;29;20043;-79
2022/06/23 07:57:53;;;;;;;16.60;7.72;;;;;;;21.94;77.12;92562.91;4794147;29;20123;-78
2022/06/23 08:00:19;;;;;;;17.08;6.70;;;;;;;21.92;76.30;92565.16;4801694;29;20059;-78
2022/06/23 08:02:54;;;;;;;17.27;7.13;;;;;;;21.86;77.19;92564.66;4789870;29;20374;-78
2022/06/23 08:05:27;;;;;;;16.95;7.70;;;;;;;21.74;77.82;92568.25;4787101;29;20038;-78
2022/06/23 08:07:55;;;;;;;18.10;8.00;;;;;;;21.73;75.34;92568.59;4807625;29;20094;-79
2022/06/23 08:10:24;;;;;;;26.08;7.72;;;;;;;21.61;76.54;92569.53;4792679;29;20334;-78
2022/06/23 08:12:59;;;;;;;30.23;7.85;;;;;;;21.56;77.82;92575.94;4796041;29;20047;-80
2022/06/23 08:18:37;;;;;;;21.70;7.68;;;;;;;21.60;77.86;92581.31;4789469;29;20102;-78
2022/06/23 08:21:05;;;;;;;14.70;7.63;;;;;;;21.68;75.04;92582.97;4788815;29;20065;-78
2022/06/23 08:23:37;;;;;;;13.13;7.97;;;;;;;21.54;75.31;92583.50;4773890;30;20035;-78
2022/06/23 08:26:06;;;;;;;18.55;6.88;;;;;;;21.62;74.84;92581.75;4788899;29;20079;-78
2022/06/23 08:28:32;;;;;;;16.27;7.00;;;;;;;21.70;75.05;92579.97;4784993;29;20062;-78
2022/06/23 08:30:59;;;;;;;18.15;7.32;;;;;;;21.83;73.38;92576.78;4804595;29;20121;-78
2022/06/23 08:33:26;;;;;;;15.95;7.55;;;;;;;21.92;72.82;92567.81;4797514;29;20093;-78
2022/06/23 08:35:56;;;;;;;17.00;7.10;;;;;;;21.89;71.70;92574.63;4787246;29;20046;-78
2022/06/23 08:38:43;;;;;;;15.15;6.82;;;;;;;21.97;69.68;92575.50;4794894;29;20085;-77
2022/06/23 08:41:22;;;;;;;16.88;6.95;;;;;;;22.11;71.18;92567.75;4773088;29;20042;-78
2022/06/23 08:43:59;;;;;;;21.85;7.68;;;;;;;22.17;68.61;92577.00;4774945;29;20047;-77
2022/06/23 08:46:35;;;;;;;16.17;7.43;;;;;;;22.17;69.51;92577.00;4800072;29;20035;-78
2022/06/23 08:49:16;;;;;;;18.88;7.50;;;;;;;22.28;70.32;92574.53;4789216;29;20062;-78
2022/06/23 08:52:19;;;;;;;25.30;7.68;;;;;;;22.42;70.89;92581.97;4774359;30;20050;-78
2022/06/23 08:54:44;;;;;;;27.80;7.78;;;;;;;22.41;70.01;92585.78;4793355;29;20031;-77
2022/06/23 08:57:19;;;;;;;18.92;8.63;;;;;;;22.23;68.61;92586.25;4768746;30;20398;-78
2022/06/23 09:00:16;;;;;;;16.88;8.18;;;;;;;21.99;68.77;92589.25;4777671;29;20050;-78
2022/06/23 09:03:02;;;;;;;22.48;8.15;;;;;;;22.50;68.19;92583.63;4811869;29;20178;-79
2022/06/23 09:05:54;;;;;;;21.73;8.02;;;;;;;22.77;70.02;92587.09;4810801;29;20071;-80
2022/06/23 09:08:40;;;;;;;;;;;;;;;23.14;68.85;92599.81;4794965;29;20039;-79
2022/06/23 09:11:30;;;;;;;20.38;7.93;;;;;;;23.56;66.72;92590.03;4808865;29;19955;-79
2022/06/23 09:14:34;;;;;;;14.07;6.20;;;;;;;23.27;65.05;92597.69;4824084;29;20042;-79
2022/06/23 09:17:23;;;;;;;19.00;8.25;;;;;;;23.10;66.00;92593.66;4810147;29;20035;-79
2022/06/23 09:20:10;;;;;;;13.73;7.30;;;;;;;23.17;66.03;92592.97;4810353;29;20040;-79
2022/06/23 09:22:48;;;;;;;24.63;7.32;;;;;;;23.02;66.38;92592.78;4806986;29;20055;-78
2022/06/23 09:25:37;;;;;;;17.02;7.70;;;;;;;23.16;65.45;92580.75;4811797;29;20058;-79
2022/06/23 09:28:44;;;;;;;14.43;7.28;;;;;;;23.42;63.39;92593.31;4815229;29;20055;-78
2022/06/23 09:31:19;;;;;;;15.52;7.70;;;;;;;23.42;63.91;92575.38;4801193;29;20125;-79
2022/06/23 09:33:54;;;;;;;20.33;8.60;;;;;;;23.22;64.58;92579.31;4828813;29;20043;-78
2022/06/23 09:36:41;;;;;;;21.88;8.70;;;;;;;23.35;65.49;92572.63;4826518;29;20042;-79
2022/06/23 09:39:22;;;;;;;22.77;8.63;;;;;;;23.49;63.46;92575.44;4811815;29;20031;-79
2022/06/23 09:41:57;;;;;;;20.67;8.02;;;;;;;23.45;62.33;92566.63;4816579;29;20099;-79
2022/06/23 09:44:51;;;;;;;24.98;8.48;;;;;;;23.42;63.37;92562.00;4814825;29;20043;-79
2022/06/23 09:47:23;;;;;;;18.48;7.55;;;;;;;23.42;60.79;92567.34;4821549;29;20034;-78
2022/06/23 09:50:15;;;;;;;21.95;8.82;;;;;;;23.69;63.39;92559.25;4812075;29;20087;-80
2022/06/23 09:53:02;;;;;;;24.75;8.55;;;;;;;23.89;62.09;92554.53;4811336;29;20034;-79
2022/06/23 09:55:49;;;;;;;22.58;7.72;;;;;;;23.95;63.71;92552.25;4827005;29;20042;-79
2022/06/23 09:58:29;;;;;;;23.52;8.07;;;;;;;23.97;59.27;92550.00;4795870;29;20043;-79
2022/06/23 10:01:34;;;;;;;19.48;7.65;;;;;;;24.06;60.08;92553.88;4789630;29;20488;-79
2022/06/23 10:04:30;;;;;;;25.58;9.10;;;;;;;24.11;61.07;92558.13;4811598;29;20100;-79
2022/06/23 10:07:17;;;;;;;20.08;7.75;;;;;;;24.08;61.48;92556.22;4797017;29;20043;-79
2022/06/23 10:10:13;;;;;;;15.35;8.32;;;;;;;24.20;61.86;92549.81;4783237;30;20067;-79
2022/06/23 10:12:53;;;;;;;22.15;9.38;;;;;;;24.01;61.42;92545.44;4799849;29;20483;-79
2022/06/23 10:15:44;;;;;;;19.17;8.68;;;;;;;23.87;63.44;92533.50;4805498;29;20035;-79
2022/06/23 10:18:43;;;;;;;23.80;8.70;;;;;;;24.04;64.40;92528.66;4797036;29;20039;-80
2022/06/23 10:21:15;;;;;;;28.70;8.98;;;;;;;24.57;65.08;92527.56;4799362;29;20054;-79
2022/06/23 10:23:44;;;;;;;22.67;8.75;;;;;;;24.71;60.13;92520.38;4799546;29;20031;-79
2022/06/23 10:26:25;;;;;;;18.08;8.60;;;;;;;24.49;60.39;92527.50;4788163;29;20253;-77
2022/06/23 10:29:35;;;;;;;29.53;9.03;;;;;;;24.42;58.48;92532.03;4806269;29;20081;-81
2022/06/23 10:32:18;;;;;;;24.13;8.73;;;;;;;24.59;59.77;92544.78;4801599;29;20288;-79
2022/06/23 10:35:04;;;;;;;25.60;8.45;;;;;;;24.72;62.70;92542.56;4804786;29;20047;-80
2022/06/23 10:37:38;;;;;;;25.08;8.05;;;;;;;24.91;60.88;92536.19;4800716;29;20056;-81
2022/06/23 10:40:09;;;;;;;21.63;7.63;;;;;;;24.67;57.72;92541.00;4800880;29;20043;-79
2022/06/23 10:42:35;;;;;;;27.67;7.65;;;;;;;24.64;57.14;92538.31;4799829;29;20046;-80
2022/06/23 10:45:28;;;;;;;21.55;7.70;;;;;;;24.72;54.60;92543.34;4803798;29;20494;-80
2022/06/23 10:48:23;;;;;;;24.45;7.88;;;;;;;24.79;54.49;92542.63;4816266;29;20100;-80
2022/06/23 10:50:58;;;;;;;22.30;8.25;;;;;;;24.77;53.62;92538.75;4794249;29;20057;-80
2022/06/23 10:53:45;;;;;;;25.50;6.70;;;;;;;24.86;54.17;92540.00;4792712;29;20051;-80
2022/06/23 10:56:26;;;;;;;11.73;5.43;;;;;;;24.99;54.41;92542.34;4793252;29;20100;-79
2022/06/23 10:59:01;;;;;;;23.65;7.47;;;;;;;25.05;52.03;92544.28;4807332;29;20035;-80
2022/06/23 11:01:50;;;;;;;27.58;7.75;;;;;;;25.21;54.16;92537.88;4798547;29;20511;-80
2022/06/23 11:04:45;;;;;;;25.38;7.25;;;;;;;25.44;55.55;92532.97;4776715;29;20039;-80
2022/06/23 11:07:54;;;;;;;22.75;7.65;;;;;;;25.42;57.21;92524.56;4805731;29;20055;-80
2022/06/23 11:10:26;;;;;;;30.50;9.02;;;;;;;25.30;56.98;92522.22;4785075;29;20055;-80
2022/06/23 11:12:58;;;;;;;22.23;8.05;;;;;;;25.03;57.71;92527.81;4814304;29;20050;-79
2022/06/23 11:15:45;;;;;;;29.88;7.72;;;;;;;25.18;59.07;92525.22;4798340;29;20031;-80
2022/06/23 11:18:52;;;;;;;20.85;7.20;;;;;;;25.36;58.92;92522.63;4810240;29;20138;-80
2022/06/23 11:21:35;;;;;;;27.08;8.82;;;;;;;25.13;57.01;92526.34;4771439;30;20042;-80
2022/06/23 11:24:18;;;;;;;20.98;8.30;;;;;;;25.40;57.62;92524.19;4797796;29;20054;-80
2022/06/23 11:27:22;;;;;;;26.75;8.88;;;;;;;25.34;57.38;92523.00;4802048;29;20115;-80
2022/06/23 11:30:24;;;;;;;22.33;8.60;;;;;;;25.17;59.40;92524.44;4791440;29;20047;-80
2022/06/23 11:33:17;;;;;;;25.80;9.48;;;;;;;25.01;58.12;92527.41;4809875;29;20045;-80
2022/06/23 11:35:51;;;;;;;;;;;;;;;24.89;59.47;92525.09;4797830;29;20049;-80
2022/06/23 11:38:46;;;;;;;27.85;10.45;;;;;;;24.97;59.57;92526.66;4809841;29;19927;-79
2022/06/23 11:41:34;;;;;;;34.40;11.18;;;;;;;25.04;59.98;92531.25;4811660;29;20035;-79
2022/06/23 11:44:11;;;;;;;32.50;11.48;;;;;;;25.01;59.59;92522.06;4798137;29;20544;-79
2022/06/23 11:47:01;;;;;;;38.70;11.38;;;;;;;25.10;58.38;92514.47;4809656;29;20041;-80
2022/06/23 11:49:57;;;;;;;33.17;10.98;;;;;;;25.08;60.01;92519.44;4788712;29;20062;-79
2022/06/23 11:52:59;;;;;;;31.58;9.73;;;;;;;25.15;58.36;92521.34;4814411;29;20035;-79
2022/06/23 11:55:54;;;;;;;33.58;10.38;;;;;;;25.47;55.47;92510.81;4739586;30;20048;-79
2022/06/23 11:58:38;;;;;;;18.48;7.43;;;;;;;25.41;56.51;92516.91;4814624;29;20042;-79
2022/06/23 12:01:20;;;;;;;40.17;11.38;;;;;;;25.09;57.60;92520.97;4795324;29;20402;-81
2022/06/23 12:04:22;;;;;;;36.72;10.13;;;;;;;24.58;59.17;92523.75;4799522;29;20035;-79
2022/06/23 12:07:03;;;;;;;;;;;;;;;24.80;60.22;92517.38;4800087;29;20058;-79
2022/06/23 12:09:45;;;;;;;34.47;10.20;;;;;;;25.01;57.29;92521.31;4803327;29;20149;-79
2022/06/23 12:12:11;;;;;;;40.55;9.30;;;;;;;25.07;56.67;92509.84;4798877;29;20043;-80
2022/06/23 12:14:38;;;;;;;29.73;10.60;;;;;;;25.11;57.58;92515.25;4796157;29;20027;-79
2022/06/23 12:17:19;;;;;;;32.75;10.43;;;;;;;25.08;57.36;92516.78;4799192;29;20047;-79
2022/06/23 12:20:14;;;;;;;35.22;10.80;;;;;;;24.86;57.99;92515.13;4800565;29;20039;-79
2022/06/23 12:23:16;;;;;;;108.65;15.68;;;;;;;25.25;59.69;92525.28;4795815;30;20031;-77
2022/06/23 12:25:53;;;;;;;30.08;11.52;;;;;;;25.36;57.21;92522.63;4793491;29;20059;-78